Авиационная погода в Кутаиси

Регион: 
Погода METAR: 
UGKO 241700Z VRB02KT 9999 SCT077 12/11 Q1019 NOSIG
Время наблюдения
2021-10-24T17:00:00Z
Температура C
12.0
Точка росы
11.0
Направление ветра
0
Скорость ветра (узлы)
2
Метео видимость
6.21
Явления погоды
Условия полета
VFR